sensor_id;sensor_type;location;lat;lon;timestamp;temperature;humidity
17774;DHT22;9011;33.236;-97.118;2023-06-22T00:01:23;30.20;99.90
17774;DHT22;9011;33.236;-97.118;2023-06-22T00:03:51;30.00;99.90
17774;DHT22;9011;33.236;-97.118;2023-06-22T00:06:21;30.00;99.90
17774;DHT22;9011;33.236;-97.118;2023-06-22T00:08:50;29.90;99.90
17774;DHT22;9011;33.236;-97.118;2023-06-22T00:11:18;29.90;99.90
17774;DHT22;9011;33.236;-97.118;2023-06-22T00:13:47;29.90;99.90
17774;DHT22;9011;33.236;-97.118;2023-06-22T00:16:15;29.80;99.90
17774;DHT22;9011;33.236;-97.118;2023-06-22T00:18:44;29.70;99.90
17774;DHT22;9011;33.236;-97.118;2023-06-22T00:21:13;29.60;99.90
17774;DHT22;9011;33.236;-97.118;2023-06-22T00:23:43;29.50;99.90
17774;DHT22;9011;33.236;-97.118;2023-06-22T00:26:12;29.40;99.90
17774;DHT22;9011;33.236;-97.118;2023-06-22T00:28:40;29.30;99.90
17774;DHT22;9011;33.236;-97.118;2023-06-22T00:31:09;29.20;99.90
17774;DHT22;9011;33.236;-97.118;2023-06-22T00:33:37;29.10;99.90
17774;DHT22;9011;33.236;-97.118;2023-06-22T00:36:06;29.10;99.90
17774;DHT22;9011;33.236;-97.118;2023-06-22T00:38:35;29.10;99.90
17774;DHT22;9011;33.236;-97.118;2023-06-22T00:41:08;29.00;99.90
17774;DHT22;9011;33.236;-97.118;2023-06-22T00:43:36;29.00;99.90
17774;DHT22;9011;33.236;-97.118;2023-06-22T00:46:05;28.90;99.90
17774;DHT22;9011;33.236;-97.118;2023-06-22T00:48:33;28.80;99.90
17774;DHT22;9011;33.236;-97.118;2023-06-22T00:51:03;28.70;99.90
17774;DHT22;9011;33.236;-97.118;2023-06-22T00:53:32;28.70;99.90
17774;DHT22;9011;33.236;-97.118;2023-06-22T00:56:04;28.60;99.90
17774;DHT22;9011;33.236;-97.118;2023-06-22T00:58:35;28.60;99.90
17774;DHT22;9011;33.236;-97.118;2023-06-22T01:01:03;28.60;99.90
17774;DHT22;9011;33.236;-97.118;2023-06-22T01:03:32;28.50;99.90
17774;DHT22;9011;33.236;-97.118;2023-06-22T01:06:08;28.50;99.90
17774;DHT22;9011;33.236;-97.118;2023-06-22T01:08:44;28.40;99.90
17774;DHT22;9011;33.236;-97.118;2023-06-22T01:11:20;28.40;99.90
17774;DHT22;9011;33.236;-97.118;2023-06-22T01:14:01;28.30;99.90
17774;DHT22;9011;33.236;-97.118;2023-06-22T01:16:33;28.30;99.90
17774;DHT22;9011;33.236;-97.118;2023-06-22T01:19:14;28.30;99.90
17774;DHT22;9011;33.236;-97.118;2023-06-22T01:21:47;28.20;99.90
17774;DHT22;9011;33.236;-97.118;2023-06-22T01:24:22;28.10;99.90
17774;DHT22;9011;33.236;-97.118;2023-06-22T01:26:58;28.00;99.90
17774;DHT22;9011;33.236;-97.118;2023-06-22T01:29:30;28.00;99.90
17774;DHT22;9011;33.236;-97.118;2023-06-22T01:32:01;28.10;99.90
17774;DHT22;9011;33.236;-97.118;2023-06-22T01:34:32;28.00;99.90
17774;DHT22;9011;33.236;-97.118;2023-06-22T01:37:03;27.90;99.90
17774;DHT22;9011;33.236;-97.118;2023-06-22T01:39:32;27.70;99.90
17774;DHT22;9011;33.236;-97.118;2023-06-22T01:42:01;27.70;99.90
17774;DHT22;9011;33.236;-97.118;2023-06-22T01:44:34;27.60;99.90
17774;DHT22;9011;33.236;-97.118;2023-06-22T01:47:03;27.50;99.90
17774;DHT22;9011;33.236;-97.118;2023-06-22T01:49:31;27.40;99.90
17774;DHT22;9011;33.236;-97.118;2023-06-22T01:52:00;27.50;99.90
17774;DHT22;9011;33.236;-97.118;2023-06-22T01:54:29;27.30;99.90
17774;DHT22;9011;33.236;-97.118;2023-06-22T01:56:57;27.30;99.90
17774;DHT22;9011;33.236;-97.118;2023-06-22T01:59:31;27.20;99.90
17774;DHT22;9011;33.236;-97.118;2023-06-22T02:02:06;27.20;99.90
17774;DHT22;9011;33.236;-97.118;2023-06-22T02:04:38;27.20;99.90
17774;DHT22;9011;33.236;-97.118;2023-06-22T02:07:13;27.20;99.90
17774;DHT22;9011;33.236;-97.118;2023-06-22T02:09:45;27.10;99.90
17774;DHT22;9011;33.236;-97.118;2023-06-22T02:12:18;27.00;99.90
17774;DHT22;9011;33.236;-97.118;2023-06-22T02:14:50;27.00;99.90
17774;DHT22;9011;33.236;-97.118;2023-06-22T02:17:21;27.00;99.90
17774;DHT22;9011;33.236;-97.118;2023-06-22T02:19:50;27.00;99.90
17774;DHT22;9011;33.236;-97.118;2023-06-22T02:22:18;27.00;99.90
17774;DHT22;9011;33.236;-97.118;2023-06-22T02:24:47;26.80;99.90
17774;DHT22;9011;33.236;-97.118;2023-06-22T02:27:16;26.80;99.90
17774;DHT22;9011;33.236;-97.118;2023-06-22T02:29:44;26.80;99.90
17774;DHT22;9011;33.236;-97.118;2023-06-22T02:32:14;26.80;99.90
17774;DHT22;9011;33.236;-97.118;2023-06-22T02:34:46;26.80;99.90
17774;DHT22;9011;33.236;-97.118;2023-06-22T02:37:14;26.70;99.90
17774;DHT22;9011;33.236;-97.118;2023-06-22T02:39:43;26.60;99.90
17774;DHT22;9011;33.236;-97.118;2023-06-22T02:42:12;26.60;99.90
17774;DHT22;9011;33.236;-97.118;2023-06-22T02:44:41;26.40;99.90
17774;DHT22;9011;33.236;-97.118;2023-06-22T02:47:10;26.30;99.90
17774;DHT22;9011;33.236;-97.118;2023-06-22T02:49:38;26.20;99.90
17774;DHT22;9011;33.236;-97.118;2023-06-22T02:52:09;26.30;99.90
17774;DHT22;9011;33.236;-97.118;2023-06-22T02:54:37;26.30;99.90
17774;DHT22;9011;33.236;-97.118;2023-06-22T02:57:06;26.10;99.90
17774;DHT22;9011;33.236;-97.118;2023-06-22T02:59:40;26.00;99.90
17774;DHT22;9011;33.236;-97.118;2023-06-22T03:02:09;25.90;99.90
17774;DHT22;9011;33.236;-97.118;2023-06-22T03:04:38;25.80;99.90
17774;DHT22;9011;33.236;-97.118;2023-06-22T03:07:08;25.90;99.90
17774;DHT22;9011;33.236;-97.118;2023-06-22T03:09:36;25.90;99.90
17774;DHT22;9011;33.236;-97.118;2023-06-22T03:12:05;26.00;99.90
17774;DHT22;9011;33.236;-97.118;2023-06-22T03:14:34;25.80;99.90
17774;DHT22;9011;33.236;-97.118;2023-06-22T03:17:03;25.70;99.90
17774;DHT22;9011;33.236;-97.118;2023-06-22T03:19:32;25.60;99.90
17774;DHT22;9011;33.236;-97.118;2023-06-22T03:22:01;25.70;99.90
17774;DHT22;9011;33.236;-97.118;2023-06-22T03:24:32;25.70;99.90
17774;DHT22;9011;33.236;-97.118;2023-06-22T03:27:01;25.70;99.90
17774;DHT22;9011;33.236;-97.118;2023-06-22T03:29:31;25.50;99.90
17774;DHT22;9011;33.236;-97.118;2023-06-22T03:32:00;25.50;99.90
17774;DHT22;9011;33.236;-97.118;2023-06-22T03:34:31;25.60;99.90
17774;DHT22;9011;33.236;-97.118;2023-06-22T03:37:01;25.60;99.90
17774;DHT22;9011;33.236;-97.118;2023-06-22T03:39:31;25.50;99.90
17774;DHT22;9011;33.236;-97.118;2023-06-22T03:42:00;25.40;99.90
17774;DHT22;9011;33.236;-97.118;2023-06-22T03:44:28;25.50;99.90
17774;DHT22;9011;33.236;-97.118;2023-06-22T03:46:57;25.50;99.90
17774;DHT22;9011;33.236;-97.118;2023-06-22T03:49:25;25.50;99.90
17774;DHT22;9011;33.236;-97.118;2023-06-22T03:51:54;25.50;99.90
17774;DHT22;9011;33.236;-97.118;2023-06-22T03:54:22;25.50;99.90
17774;DHT22;9011;33.236;-97.118;2023-06-22T03:56:52;25.40;99.90
17774;DHT22;9011;33.236;-97.118;2023-06-22T03:59:21;25.50;99.90
17774;DHT22;9011;33.236;-97.118;2023-06-22T04:01:49;25.40;99.90
17774;DHT22;9011;33.236;-97.118;2023-06-22T04:04:18;25.50;99.90
17774;DHT22;9011;33.236;-97.118;2023-06-22T04:06:46;25.50;99.90
17774;DHT22;9011;33.236;-97.118;2023-06-22T04:09:15;25.50;99.90
17774;DHT22;9011;33.236;-97.118;2023-06-22T04:11:44;25.50;99.90
17774;DHT22;9011;33.236;-97.118;2023-06-22T04:14:14;25.50;99.90
17774;DHT22;9011;33.236;-97.118;2023-06-22T04:16:42;25.50;99.90
17774;DHT22;9011;33.236;-97.118;2023-06-22T04:19:11;25.40;99.90
17774;DHT22;9011;33.236;-97.118;2023-06-22T04:21:43;25.40;99.90
17774;DHT22;9011;33.236;-97.118;2023-06-22T04:24:13;25.40;99.90
17774;DHT22;9011;33.236;-97.118;2023-06-22T04:26:42;25.40;99.90
17774;DHT22;9011;33.236;-97.118;2023-06-22T04:29:13;25.40;99.90
17774;DHT22;9011;33.236;-97.118;2023-06-22T04:31:42;25.30;99.90
17774;DHT22;9011;33.236;-97.118;2023-06-22T04:34:10;25.20;99.90
17774;DHT22;9011;33.236;-97.118;2023-06-22T04:36:40;25.10;99.90
17774;DHT22;9011;33.236;-97.118;2023-06-22T04:39:09;25.20;99.90
17774;DHT22;9011;33.236;-97.118;2023-06-22T04:41:38;25.20;99.90
17774;DHT22;9011;33.236;-97.118;2023-06-22T04:44:10;25.10;99.90
17774;DHT22;9011;33.236;-97.118;2023-06-22T04:46:41;25.20;99.90
17774;DHT22;9011;33.236;-97.118;2023-06-22T04:49:09;25.10;99.90
17774;DHT22;9011;33.236;-97.118;2023-06-22T04:51:39;25.10;99.90
17774;DHT22;9011;33.236;-97.118;2023-06-22T04:54:09;25.10;99.90
17774;DHT22;9011;33.236;-97.118;2023-06-22T04:56:37;25.10;99.90
17774;DHT22;9011;33.236;-97.118;2023-06-22T04:59:07;25.10;99.90
17774;DHT22;9011;33.236;-97.118;2023-06-22T05:01:41;25.20;99.90
17774;DHT22;9011;33.236;-97.118;2023-06-22T05:04:10;25.20;99.90
17774;DHT22;9011;33.236;-97.118;2023-06-22T05:06:38;25.30;99.90
17774;DHT22;9011;33.236;-97.118;2023-06-22T05:09:07;25.40;99.90
17774;DHT22;9011;33.236;-97.118;2023-06-22T05:11:35;25.40;99.90
17774;DHT22;9011;33.236;-97.118;2023-06-22T05:14:04;25.40;99.90
17774;DHT22;9011;33.236;-97.118;2023-06-22T05:16:33;25.40;99.90
17774;DHT22;9011;33.236;-97.118;2023-06-22T05:19:04;25.40;99.90
17774;DHT22;9011;33.236;-97.118;2023-06-22T05:21:33;25.50;99.90
17774;DHT22;9011;33.236;-97.118;2023-06-22T05:24:01;25.40;99.90
17774;DHT22;9011;33.236;-97.118;2023-06-22T05:26:30;25.50;99.90
17774;DHT22;9011;33.236;-97.118;2023-06-22T05:28:59;25.50;99.90
17774;DHT22;9011;33.236;-97.118;2023-06-22T05:31:28;25.50;99.90
17774;DHT22;9011;33.236;-97.118;2023-06-22T05:33:56;25.40;99.90
17774;DHT22;9011;33.236;-97.118;2023-06-22T05:36:27;25.40;99.90
17774;DHT22;9011;33.236;-97.118;2023-06-22T05:38:57;25.50;99.90
17774;DHT22;9011;33.236;-97.118;2023-06-22T05:41:26;25.40;99.90
17774;DHT22;9011;33.236;-97.118;2023-06-22T05:43:54;25.40;99.90
17774;DHT22;9011;33.236;-97.118;2023-06-22T05:46:23;25.40;99.90
17774;DHT22;9011;33.236;-97.118;2023-06-22T05:48:51;25.30;99.90
17774;DHT22;9011;33.236;-97.118;2023-06-22T05:51:20;25.20;99.90
17774;DHT22;9011;33.236;-97.118;2023-06-22T05:53:50;25.10;99.90
17774;DHT22;9011;33.236;-97.118;2023-06-22T05:56:19;25.10;99.90
17774;DHT22;9011;33.236;-97.118;2023-06-22T05:58:47;25.00;99.90
17774;DHT22;9011;33.236;-97.118;2023-06-22T06:01:16;25.00;99.90
17774;DHT22;9011;33.236;-97.118;2023-06-22T06:03:44;24.80;99.90
17774;DHT22;9011;33.236;-97.118;2023-06-22T06:06:13;24.70;99.90
17774;DHT22;9011;33.236;-97.118;2023-06-22T06:08:41;24.70;99.90
17774;DHT22;9011;33.236;-97.118;2023-06-22T06:11:12;24.60;99.90
17774;DHT22;9011;33.236;-97.118;2023-06-22T06:13:40;24.50;99.90
17774;DHT22;9011;33.236;-97.118;2023-06-22T06:16:09;24.50;99.90
17774;DHT22;9011;33.236;-97.118;2023-06-22T06:18:37;24.50;99.90
17774;DHT22;9011;33.236;-97.118;2023-06-22T06:21:06;24.40;99.90
17774;DHT22;9011;33.236;-97.118;2023-06-22T06:23:34;24.50;99.90
17774;DHT22;9011;33.236;-97.118;2023-06-22T06:26:03;24.40;99.90
17774;DHT22;9011;33.236;-97.118;2023-06-22T06:28:35;24.50;99.90
17774;DHT22;9011;33.236;-97.118;2023-06-22T06:31:04;24.50;99.90
17774;DHT22;9011;33.236;-97.118;2023-06-22T06:33:33;24.60;99.90
17774;DHT22;9011;33.236;-97.118;2023-06-22T06:36:02;24.60;99.90
17774;DHT22;9011;33.236;-97.118;2023-06-22T06:38:31;24.70;99.90
17774;DHT22;9011;33.236;-97.118;2023-06-22T06:40:59;24.80;99.90
17774;DHT22;9011;33.236;-97.118;2023-06-22T06:43:28;24.70;99.90
17774;DHT22;9011;33.236;-97.118;2023-06-22T06:45:58;24.70;99.90
17774;DHT22;9011;33.236;-97.118;2023-06-22T06:48:26;24.70;99.90
17774;DHT22;9011;33.236;-97.118;2023-06-22T06:50:55;24.60;99.90
17774;DHT22;9011;33.236;-97.118;2023-06-22T06:53:24;24.70;99.90
17774;DHT22;9011;33.236;-97.118;2023-06-22T06:55:52;24.70;99.90
17774;DHT22;9011;33.236;-97.118;2023-06-22T06:58:21;24.60;99.90
17774;DHT22;9011;33.236;-97.118;2023-06-22T07:00:49;24.50;99.90
17774;DHT22;9011;33.236;-97.118;2023-06-22T07:03:19;24.50;99.90
17774;DHT22;9011;33.236;-97.118;2023-06-22T07:05:48;24.50;99.90
17774;DHT22;9011;33.236;-97.118;2023-06-22T07:08:16;24.50;99.90
17774;DHT22;9011;33.236;-97.118;2023-06-22T07:10:45;24.50;99.90
17774;DHT22;9011;33.236;-97.118;2023-06-22T07:13:13;24.50;99.90
17774;DHT22;9011;33.236;-97.118;2023-06-22T07:15:42;24.50;99.90
17774;DHT22;9011;33.236;-97.118;2023-06-22T07:18:10;24.60;99.90
17774;DHT22;9011;33.236;-97.118;2023-06-22T07:20:40;24.60;99.90
17774;DHT22;9011;33.236;-97.118;2023-06-22T07:23:09;24.60;99.90
17774;DHT22;9011;33.236;-97.118;2023-06-22T07:25:37;24.50;99.90
17774;DHT22;9011;33.236;-97.118;2023-06-22T07:28:07;24.50;99.90
17774;DHT22;9011;33.236;-97.118;2023-06-22T07:30:35;24.60;99.90
17774;DHT22;9011;33.236;-97.118;2023-06-22T07:33:04;24.60;99.90
17774;DHT22;9011;33.236;-97.118;2023-06-22T07:35:34;24.60;99.90
17774;DHT22;9011;33.236;-97.118;2023-06-22T07:38:04;24.60;99.90
17774;DHT22;9011;33.236;-97.118;2023-06-22T07:40:33;24.60;99.90
17774;DHT22;9011;33.236;-97.118;2023-06-22T07:43:01;24.70;99.90
17774;DHT22;9011;33.236;-97.118;2023-06-22T07:45:30;24.70;99.90
17774;DHT22;9011;33.236;-97.118;2023-06-22T07:48:01;24.70;99.90
17774;DHT22;9011;33.236;-97.118;2023-06-22T07:50:29;24.70;99.90
17774;DHT22;9011;33.236;-97.118;2023-06-22T07:52:58;24.70;99.90
17774;DHT22;9011;33.236;-97.118;2023-06-22T07:55:28;24.70;99.90
17774;DHT22;9011;33.236;-97.118;2023-06-22T07:57:56;24.70;99.90
17774;DHT22;9011;33.236;-97.118;2023-06-22T08:00:25;24.70;99.90
17774;DHT22;9011;33.236;-97.118;2023-06-22T08:02:54;24.70;99.90
17774;DHT22;9011;33.236;-97.118;2023-06-22T08:05:22;24.70;99.90
17774;DHT22;9011;33.236;-97.118;2023-06-22T08:07:51;24.80;99.90
17774;DHT22;9011;33.236;-97.118;2023-06-22T08:10:20;24.80;99.90
17774;DHT22;9011;33.236;-97.118;2023-06-22T08:12:50;24.70;99.90
17774;DHT22;9011;33.236;-97.118;2023-06-22T08:15:19;24.80;99.90
17774;DHT22;9011;33.236;-97.118;2023-06-22T08:17:48;24.70;99.90
17774;DHT22;9011;33.236;-97.118;2023-06-22T08:20:18;24.80;99.90
17774;DHT22;9011;33.236;-97.118;2023-06-22T08:22:47;24.80;99.90
17774;DHT22;9011;33.236;-97.118;2023-06-22T08:25:15;24.70;99.90
17774;DHT22;9011;33.236;-97.118;2023-06-22T08:27:45;24.70;99.90
17774;DHT22;9011;33.236;-97.118;2023-06-22T08:30:16;24.70;99.90
17774;DHT22;9011;33.236;-97.118;2023-06-22T08:32:45;24.70;99.90
17774;DHT22;9011;33.236;-97.118;2023-06-22T08:35:14;24.70;99.90
17774;DHT22;9011;33.236;-97.118;2023-06-22T08:37:42;24.70;99.90
17774;DHT22;9011;33.236;-97.118;2023-06-22T08:40:17;24.70;99.90
17774;DHT22;9011;33.236;-97.118;2023-06-22T08:42:46;24.70;99.90
17774;DHT22;9011;33.236;-97.118;2023-06-22T08:45:17;24.70;99.90
17774;DHT22;9011;33.236;-97.118;2023-06-22T08:47:45;24.70;99.90
17774;DHT22;9011;33.236;-97.118;2023-06-22T08:50:14;24.70;99.90
17774;DHT22;9011;33.236;-97.118;2023-06-22T08:52:42;24.70;99.90
17774;DHT22;9011;33.236;-97.118;2023-06-22T08:55:12;24.60;99.90
17774;DHT22;9011;33.236;-97.118;2023-06-22T08:57:41;24.60;99.90
17774;DHT22;9011;33.236;-97.118;2023-06-22T09:00:11;24.60;99.90
17774;DHT22;9011;33.236;-97.118;2023-06-22T09:02:48;24.70;99.90
17774;DHT22;9011;33.236;-97.118;2023-06-22T09:05:16;24.70;99.90
17774;DHT22;9011;33.236;-97.118;2023-06-22T09:07:45;24.70;99.90
17774;DHT22;9011;33.236;-97.118;2023-06-22T09:10:14;24.70;99.90
17774;DHT22;9011;33.236;-97.118;2023-06-22T09:12:42;24.70;99.90
17774;DHT22;9011;33.236;-97.118;2023-06-22T09:15:11;24.70;99.90
17774;DHT22;9011;33.236;-97.118;2023-06-22T09:17:41;24.70;99.90
17774;DHT22;9011;33.236;-97.118;2023-06-22T09:20:12;24.70;99.90
17774;DHT22;9011;33.236;-97.118;2023-06-22T09:22:41;24.70;99.90
17774;DHT22;9011;33.236;-97.118;2023-06-22T09:25:10;24.70;99.90
17774;DHT22;9011;33.236;-97.118;2023-06-22T09:27:39;24.70;99.90
17774;DHT22;9011;33.236;-97.118;2023-06-22T09:30:08;24.70;99.90
17774;DHT22;9011;33.236;-97.118;2023-06-22T09:32:37;24.70;99.90
17774;DHT22;9011;33.236;-97.118;2023-06-22T09:35:06;24.60;99.90
17774;DHT22;9011;33.236;-97.118;2023-06-22T09:37:37;24.60;99.90
17774;DHT22;9011;33.236;-97.118;2023-06-22T09:40:07;24.60;99.90
17774;DHT22;9011;33.236;-97.118;2023-06-22T09:42:38;24.50;99.90
17774;DHT22;9011;33.236;-97.118;2023-06-22T09:45:08;24.50;99.90
17774;DHT22;9011;33.236;-97.118;2023-06-22T09:47:37;24.50;99.90
17774;DHT22;9011;33.236;-97.118;2023-06-22T09:50:06;24.50;99.90
17774;DHT22;9011;33.236;-97.118;2023-06-22T09:52:36;24.50;99.90
17774;DHT22;9011;33.236;-97.118;2023-06-22T09:55:05;24.50;99.90
17774;DHT22;9011;33.236;-97.118;2023-06-22T09:57:34;24.40;99.90
17774;DHT22;9011;33.236;-97.118;2023-06-22T10:00:05;24.40;99.90
17774;DHT22;9011;33.236;-97.118;2023-06-22T10:02:38;24.40;99.90
17774;DHT22;9011;33.236;-97.118;2023-06-22T10:05:06;24.30;99.90
17774;DHT22;9011;33.236;-97.118;2023-06-22T10:07:37;24.30;99.90
17774;DHT22;9011;33.236;-97.118;2023-06-22T10:10:09;24.30;99.90
17774;DHT22;9011;33.236;-97.118;2023-06-22T10:12:45;24.40;99.90
17774;DHT22;9011;33.236;-97.118;2023-06-22T10:15:14;24.40;99.90
17774;DHT22;9011;33.236;-97.118;2023-06-22T10:17:43;24.30;99.90
17774;DHT22;9011;33.236;-97.118;2023-06-22T10:20:12;24.30;99.90
17774;DHT22;9011;33.236;-97.118;2023-06-22T10:22:43;24.30;99.90
17774;DHT22;9011;33.236;-97.118;2023-06-22T10:25:13;24.30;99.90
17774;DHT22;9011;33.236;-97.118;2023-06-22T10:27:41;24.30;99.90
17774;DHT22;9011;33.236;-97.118;2023-06-22T10:30:11;24.30;99.90
17774;DHT22;9011;33.236;-97.118;2023-06-22T10:32:41;24.30;99.90
17774;DHT22;9011;33.236;-97.118;2023-06-22T10:35:10;24.30;99.90
17774;DHT22;9011;33.236;-97.118;2023-06-22T10:37:42;24.20;99.90
17774;DHT22;9011;33.236;-97.118;2023-06-22T10:40:12;24.20;99.90
17774;DHT22;9011;33.236;-97.118;2023-06-22T10:42:41;24.30;99.90
17774;DHT22;9011;33.236;-97.118;2023-06-22T10:45:10;24.20;99.90
17774;DHT22;9011;33.236;-97.118;2023-06-22T10:47:39;24.30;99.90
17774;DHT22;9011;33.236;-97.118;2023-06-22T10:50:09;24.30;99.90
17774;DHT22;9011;33.236;-97.118;2023-06-22T10:52:37;24.30;99.90
17774;DHT22;9011;33.236;-97.118;2023-06-22T10:55:08;24.30;99.90
17774;DHT22;9011;33.236;-97.118;2023-06-22T10:57:37;24.30;99.90
17774;DHT22;9011;33.236;-97.118;2023-06-22T11:00:10;24.30;99.90
17774;DHT22;9011;33.236;-97.118;2023-06-22T11:02:38;24.30;99.90
17774;DHT22;9011;33.236;-97.118;2023-06-22T11:05:07;24.30;99.90
17774;DHT22;9011;33.236;-97.118;2023-06-22T11:07:37;24.30;99.90
17774;DHT22;9011;33.236;-97.118;2023-06-22T11:10:08;24.30;99.90
17774;DHT22;9011;33.236;-97.118;2023-06-22T11:12:36;24.30;99.90
17774;DHT22;9011;33.236;-97.118;2023-06-22T11:15:06;24.20;99.90
17774;DHT22;9011;33.236;-97.118;2023-06-22T11:17:34;24.20;99.90
17774;DHT22;9011;33.236;-97.118;2023-06-22T11:20:04;24.10;99.90
17774;DHT22;9011;33.236;-97.118;2023-06-22T11:22:37;24.10;99.90
17774;DHT22;9011;33.236;-97.118;2023-06-22T11:25:08;24.10;99.90
17774;DHT22;9011;33.236;-97.118;2023-06-22T11:27:38;24.10;99.90
17774;DHT22;9011;33.236;-97.118;2023-06-22T11:30:07;24.10;99.90
17774;DHT22;9011;33.236;-97.118;2023-06-22T11:32:36;24.10;99.90
17774;DHT22;9011;33.236;-97.118;2023-06-22T11:35:05;24.10;99.90
17774;DHT22;9011;33.236;-97.118;2023-06-22T11:37:33;24.10;99.90
17774;DHT22;9011;33.236;-97.118;2023-06-22T11:40:02;24.10;99.90
17774;DHT22;9011;33.236;-97.118;2023-06-22T11:42:36;24.10;99.90
17774;DHT22;9011;33.236;-97.118;2023-06-22T11:45:06;24.10;99.90
17774;DHT22;9011;33.236;-97.118;2023-06-22T11:47:35;24.10;99.90
17774;DHT22;9011;33.236;-97.118;2023-06-22T11:50:04;24.00;99.90
17774;DHT22;9011;33.236;-97.118;2023-06-22T11:52:33;24.00;99.90
17774;DHT22;9011;33.236;-97.118;2023-06-22T11:55:04;24.10;99.90
17774;DHT22;9011;33.236;-97.118;2023-06-22T11:57:35;24.10;99.90
17774;DHT22;9011;33.236;-97.118;2023-06-22T12:00:05;24.10;99.90
17774;DHT22;9011;33.236;-97.118;2023-06-22T12:02:43;24.00;99.90
17774;DHT22;9011;33.236;-97.118;2023-06-22T12:05:12;24.10;99.90
17774;DHT22;9011;33.236;-97.118;2023-06-22T12:07:41;24.10;99.90
17774;DHT22;9011;33.236;-97.118;2023-06-22T12:10:10;24.10;99.90
17774;DHT22;9011;33.236;-97.118;2023-06-22T12:12:40;24.10;99.90
17774;DHT22;9011;33.236;-97.118;2023-06-22T12:15:09;24.10;99.90
17774;DHT22;9011;33.236;-97.118;2023-06-22T12:17:37;24.10;99.90
17774;DHT22;9011;33.236;-97.118;2023-06-22T12:20:07;24.20;99.90
17774;DHT22;9011;33.236;-97.118;2023-06-22T12:22:36;24.20;99.90
17774;DHT22;9011;33.236;-97.118;2023-06-22T12:25:06;24.20;99.90
17774;DHT22;9011;33.236;-97.118;2023-06-22T12:27:35;24.30;99.90
17774;DHT22;9011;33.236;-97.118;2023-06-22T12:30:06;24.30;99.90
17774;DHT22;9011;33.236;-97.118;2023-06-22T12:32:34;24.30;99.90
17774;DHT22;9011;33.236;-97.118;2023-06-22T12:35:03;24.30;99.90
17774;DHT22;9011;33.236;-97.118;2023-06-22T12:37:33;24.40;99.90
17774;DHT22;9011;33.236;-97.118;2023-06-22T12:40:02;24.40;99.90
17774;DHT22;9011;33.236;-97.118;2023-06-22T12:42:31;24.40;99.90
17774;DHT22;9011;33.236;-97.118;2023-06-22T12:45:00;24.50;99.90
17774;DHT22;9011;33.236;-97.118;2023-06-22T12:47:30;24.50;99.90
17774;DHT22;9011;33.236;-97.118;2023-06-22T12:49:58;24.60;99.90
17774;DHT22;9011;33.236;-97.118;2023-06-22T12:52:27;24.60;99.90
17774;DHT22;9011;33.236;-97.118;2023-06-22T12:54:55;24.70;99.90
17774;DHT22;9011;33.236;-97.118;2023-06-22T12:57:24;24.70;99.90
17774;DHT22;9011;33.236;-97.118;2023-06-22T12:59:52;24.80;99.90
17774;DHT22;9011;33.236;-97.118;2023-06-22T13:02:21;24.80;99.90
17774;DHT22;9011;33.236;-97.118;2023-06-22T13:04:51;24.90;99.90
17774;DHT22;9011;33.236;-97.118;2023-06-22T13:07:20;24.90;99.90
17774;DHT22;9011;33.236;-97.118;2023-06-22T13:09:48;25.00;99.90
17774;DHT22;9011;33.236;-97.118;2023-06-22T13:12:18;25.10;99.90
17774;DHT22;9011;33.236;-97.118;2023-06-22T13:14:47;25.20;99.90
17774;DHT22;9011;33.236;-97.118;2023-06-22T13:17:15;25.20;99.90
17774;DHT22;9011;33.236;-97.118;2023-06-22T13:19:44;25.20;99.90
17774;DHT22;9011;33.236;-97.118;2023-06-22T13:22:28;25.30;99.90
17774;DHT22;9011;33.236;-97.118;2023-06-22T13:24:57;25.30;99.90
17774;DHT22;9011;33.236;-97.118;2023-06-22T13:27:26;25.30;99.90
17774;DHT22;9011;33.236;-97.118;2023-06-22T13:29:54;25.40;99.90
17774;DHT22;9011;33.236;-97.118;2023-06-22T13:32:23;25.50;99.90
17774;DHT22;9011;33.236;-97.118;2023-06-22T13:34:53;25.50;99.90
17774;DHT22;9011;33.236;-97.118;2023-06-22T13:37:22;25.60;99.90
17774;DHT22;9011;33.236;-97.118;2023-06-22T13:39:52;25.70;99.90
17774;DHT22;9011;33.236;-97.118;2023-06-22T13:42:22;25.90;99.90
17774;DHT22;9011;33.236;-97.118;2023-06-22T13:44:51;25.90;99.90
17774;DHT22;9011;33.236;-97.118;2023-06-22T13:47:19;26.10;99.90
17774;DHT22;9011;33.236;-97.118;2023-06-22T13:49:48;26.10;99.90
17774;DHT22;9011;33.236;-97.118;2023-06-22T13:52:16;26.20;99.90
17774;DHT22;9011;33.236;-97.118;2023-06-22T13:54:45;26.30;99.90
17774;DHT22;9011;33.236;-97.118;2023-06-22T13:57:15;26.30;99.90
17774;DHT22;9011;33.236;-97.118;2023-06-22T13:59:43;26.50;99.90
17774;DHT22;9011;33.236;-97.118;2023-06-22T14:02:12;26.50;99.90
17774;DHT22;9011;33.236;-97.118;2023-06-22T14:04:40;26.70;99.90
17774;DHT22;9011;33.236;-97.118;2023-06-22T14:07:09;26.70;99.90
17774;DHT22;9011;33.236;-97.118;2023-06-22T14:09:37;26.70;99.90
17774;DHT22;9011;33.236;-97.118;2023-06-22T14:12:07;26.80;99.90
17774;DHT22;9011;33.236;-97.118;2023-06-22T14:14:37;26.90;99.90
17774;DHT22;9011;33.236;-97.118;2023-06-22T14:17:06;26.90;99.90
17774;DHT22;9011;33.236;-97.118;2023-06-22T14:19:34;27.00;99.90
17774;DHT22;9011;33.236;-97.118;2023-06-22T14:22:03;27.10;99.90
17774;DHT22;9011;33.236;-97.118;2023-06-22T14:24:32;27.20;99.90
17774;DHT22;9011;33.236;-97.118;2023-06-22T14:27:00;27.30;99.90
17774;DHT22;9011;33.236;-97.118;2023-06-22T14:29:29;27.40;99.90
17774;DHT22;9011;33.236;-97.118;2023-06-22T14:32:00;27.40;99.90
17774;DHT22;9011;33.236;-97.118;2023-06-22T14:34:28;27.60;99.90
17774;DHT22;9011;33.236;-97.118;2023-06-22T14:36:57;27.60;99.90
17774;DHT22;9011;33.236;-97.118;2023-06-22T14:39:25;27.70;99.90
17774;DHT22;9011;33.236;-97.118;2023-06-22T14:41:54;27.80;99.90
17774;DHT22;9011;33.236;-97.118;2023-06-22T14:44:22;27.90;99.90
17774;DHT22;9011;33.236;-97.118;2023-06-22T14:46:51;27.80;99.90
17774;DHT22;9011;33.236;-97.118;2023-06-22T14:49:21;27.90;99.90
17774;DHT22;9011;33.236;-97.118;2023-06-22T14:51:50;28.00;99.90
17774;DHT22;9011;33.236;-97.118;2023-06-22T14:54:18;28.00;99.90
17774;DHT22;9011;33.236;-97.118;2023-06-22T14:56:47;28.10;99.90
17774;DHT22;9011;33.236;-97.118;2023-06-22T14:59:16;28.10;99.90
17774;DHT22;9011;33.236;-97.118;2023-06-22T15:01:45;28.20;99.90
17774;DHT22;9011;33.236;-97.118;2023-06-22T15:04:13;28.30;99.90
17774;DHT22;9011;33.236;-97.118;2023-06-22T15:06:43;28.40;99.90
17774;DHT22;9011;33.236;-97.118;2023-06-22T15:09:12;28.50;99.90
17774;DHT22;9011;33.236;-97.118;2023-06-22T15:11:40;28.70;99.90
17774;DHT22;9011;33.236;-97.118;2023-06-22T15:14:09;28.70;99.90
17774;DHT22;9011;33.236;-97.118;2023-06-22T15:16:37;28.70;99.90
17774;DHT22;9011;33.236;-97.118;2023-06-22T15:19:06;28.90;99.90
17774;DHT22;9011;33.236;-97.118;2023-06-22T15:21:34;28.90;99.90
17774;DHT22;9011;33.236;-97.118;2023-06-22T15:24:05;29.00;99.90
17774;DHT22;9011;33.236;-97.118;2023-06-22T15:26:33;29.00;99.90
17774;DHT22;9011;33.236;-97.118;2023-06-22T15:29:02;29.10;99.90